Aérodrome :
LOGIN :

S'inscrire | Disclaimer

   EN    FR    IT 

 










Légende :    VFR   VFR Marginal   IFR   IFR Intensif   IFR Très Intensif
Visi : 
Plafond : 
>= 8 km
>= 3000ft
5 à 8 km
1000 à 3000 ft
1500m à 5 km
500 à 1000 ft
800 à 1500m
200 à 500 ft
< 800m
< 200 ft
Symboles :   Orages  Brouillard  Fortes neiges  Fortes précipitations  Vent > 20 kt
SIGMETs :   Divers  Orages  Givrage  Turbulence  Onde Orograph.  Cendres Volcan.







- Altitude de l'aérodrome : 1234 ft
- Code IATA : LUX


ELLX - Luxembourg Findel

DERNIER METAR :
  • 221850Z 25005KT 9999 -RA SCT039 BKN050 12/08 Q1020 NOSIG

METARs EXPIRÉS :
  • 221820Z 22006KT 9999 -RA SCT040 BKN050 12/09 Q1020 NOSIG
  • 221750Z 21004KT 160V250 9999 -RA FEW045 BKN070 12/09 Q1020 NOSIG
  • 221720Z 24005KT 9999 -RA FEW035 BKN060 12/09 Q1020 NOSIG
  • 221650Z 22006KT 9999 RA SCT035 BKN060 12/08 Q1020 RERA NOSIG
  • 221620Z 23007KT 9999 -RA NSC 14/07 Q1020 NOSIG

TAF TAF ELLX
Valide du 22 à 18h jusqu'au 24 à 00h UTC


221700Z 2218/2324 22005KT 9999 -RA SCT035 BKN060
BECMG 2220/2222 3000 -RADZ BKN005
BECMG 2305/2307 24015G25KT
BECMG 2312/2315 32012KT 9999 BKN020
TEMPO 2312/2317 VRB25G45KT 3000 TSRA SCT010 BKN015CB
BECMG 2320/2322 34005KT
ATIS : +352 4798 27300
Météo : +352 4798 27010 / 27050
Pas de NOTAMs connus pour ce terrain.



MET'MAP, la Météo Aéronautique d'un coup d'oeil ! - Copyright ORBIFLY Décembre 2007 - Disclaimer

ORBIFLY MET'MAP TEAM :

Programmation & Développement : Alexandra Zaïnal
Conception & Développement : Baudouin d'Aumeries
Co-Programmation & Développement : Marc-Olivier Méhu
Soutien technique & logistique : Manuel Goepfert

Contact : metmap@orbifly.com




SOURCES & CREDITS :

   NOAA